»·PEaware :: N318GL KMHV-KVNY

N318GL :: KMHV-KVNY

FLIGHT INFORMATION

Flight Status: Arrived
Operator: Privately registered:
United States
More flights under this callsign
Pilot: Garrett L. (35839)
Aircraft: CESSNA 206 STATIONAIR
(C206)
More flights by this aircraft type
Origin: KMHV Mojave
United States
Destination: KVNY Van Nuys
United States
More flights between these airports :: More routes between these airports
Route: JERID5 JERID V197 PMD PMD240 LYNXX VNY329 VNY
File this flight plan on PilotEdge
Remarks:
Altitude:
(Current/Filed)
8,000ft
Speed:
(Current/Filed)
160kts
Departed: 16-May-23 10:12 AM
Arrived: 16-May-23 10:46 AM
Distance/Time
Traveled:
54nm/0:33
Distance/Time
To Go:
Arrived

Flight Plot

Page will automatically refresh every two minutes.

Flight plan parsing failed; only flown route is shown


Map Options




Map Legend


Flown Route
Filed Route
Departure Airport
Arrival Airport
Navaid (VOR, NDB)
Fix

Horizontal Profiles

Position Reports

Time Latitude Longitude Heading Altitude Ground
Speed
16-May-23 09:56 35.056590 -118.150072 359 2743ft 0kts
16-May-23 09:57 35.056590 -118.150072 359 2743ft 0kts
16-May-23 09:58 35.056590 -118.150072 359 2743ft 0kts
16-May-23 09:59 35.056590 -118.150072 359 2743ft 0kts
16-May-23 10:00 35.056590 -118.150072 359 2743ft 0kts
16-May-23 10:01 35.056590 -118.150072 359 2743ft 0kts
16-May-23 10:02 35.056590 -118.150072 359 2743ft 0kts
16-May-23 10:03 35.056590 -118.150072 359 2743ft 0kts
16-May-23 10:04 35.057565 -118.148830 112 2743ft 9kts
16-May-23 10:05 35.055076 -118.145782 132 2732ft 13kts
16-May-23 10:06 35.052429 -118.142582 135 2717ft 17kts
16-May-23 10:07 35.049621 -118.139168 135 2705ft 23kts
16-May-23 10:08 35.046352 -118.135212 134 2691ft 17kts
16-May-23 10:09 35.044267 -118.131806 42 2680ft 0kts
16-May-23 10:10 35.044267 -118.131806 42 2680ft 0kts
16-May-23 10:11 35.049653 -118.136801 315 2716ft 83kts
16-May-23 10:12 35.066778 -118.158609 318 3441ft 97kts
16-May-23 10:13 35.080250 -118.185119 249 4356ft 102kts
16-May-23 10:14 35.062348 -118.211713 218 5272ft 104kts
16-May-23 10:15 35.039094 -118.233024 215 6171ft 106kts
16-May-23 10:16 35.014899 -118.254279 214 7050ft 109kts
16-May-23 10:17 34.989882 -118.276181 214 7913ft 112kts
16-May-23 10:18 34.964177 -118.298668 213 8760ft 116kts
16-May-23 10:19 34.937808 -118.321718 211 9600ft 118kts
16-May-23 10:20 34.908847 -118.346930 210 10035ft 152kts
16-May-23 10:21 34.868841 -118.365116 152 10020ft 159kts
16-May-23 10:22 34.836263 -118.330607 129 9964ft 156kts
16-May-23 10:23 34.806169 -118.291345 128 9476ft 159kts
16-May-23 10:24 34.776057 -118.252037 128 9032ft 159kts
16-May-23 10:25 34.745881 -118.212694 128 8572ft 159kts
16-May-23 10:26 34.715649 -118.173322 128 8094ft 159kts
16-May-23 10:27 34.685087 -118.133544 128 8007ft 162kts
16-May-23 10:29 34.654381 -118.093651 128 8008ft 162kts
16-May-23 10:30 34.618162 -118.092594 255 8002ft 184kts
16-May-23 10:31 34.611336 -118.154158 255 8039ft 184kts
16-May-23 10:32 34.598011 -118.214066 255 8041ft 185kts
16-May-23 10:33 34.584561 -118.274337 255 8039ft 185kts
16-May-23 10:34 34.571063 -118.334689 255 8037ft 184kts
16-May-23 10:35 34.555935 -118.391977 236 8039ft 169kts
16-May-23 10:36 34.529792 -118.437313 228 7798ft 162kts
16-May-23 10:37 34.502878 -118.480171 228 7114ft 159kts
16-May-23 10:38 34.474875 -118.519200 183 6332ft 148kts
16-May-23 10:39 34.435940 -118.512559 169 5836ft 141kts
16-May-23 10:40 34.396060 -118.508051 172 5001ft 148kts
16-May-23 10:41 34.354803 -118.504109 173 4063ft 149kts
16-May-23 10:42 34.313988 -118.500255 173 3112ft 139kts
16-May-23 10:43 34.281840 -118.497192 173 2363ft 103kts
16-May-23 10:44 34.253730 -118.494591 174 1725ft 97kts
16-May-23 10:45 34.228344 -118.492140 174 1147ft 83kts
16-May-23 10:46 34.209856 -118.490415 184 805ft 34kts
16-May-23 10:47 34.207811 -118.491211 197 805ft 5kts
16-May-23 10:48 34.204065 -118.491012 185 805ft 9kts

Navigation Log

Ident Type
Flight plan parsing failed, navigation log unavailable